ソチ の空港の天気 - METARとTAF

ソチ空港 ( URSS / AER ) - ロシア ソチ
飛行場実況気象(Metar)
観測時間10/15 20:00 MSK (10/15 17:00 UTC)
風向・風速北東 2m/s
視程10km以上
天気現象
なし
気温16℃
湿度82%
気圧1018hPa
METARURSS 151700Z 05002MPS 9999 NSC 16/13 Q1018 R02/010070 R06/010070 NOSIG RMK R06/00000MPS QFE762
過去の天気等 Google飛行場航空写真 Wunderground天気予報

過去48時間のMETAR

飛行場予報(TAF)
発表時間: 10/15 19:56 MSK (10/15 16:56 UTC)
予報対象時間: 15日21時 MSK ~ 16日21時 MSK
風向・風速北東 6m/s
視程10km以上
なし
16日11時 MSK ~ 16日12時 MSK に徐々に
風向・風速西 4m/s 瞬間風速 9m/s
16日18時 MSK ~ 16日20時 MSK に徐々に
風向・風速北東 6m/s
TAF URSS 151656Z 1518/1618 04006MPS 9999 NSC
BECMG 1608/1609 27004G09MPS
BECMG 1615/1617 04006MPS